sensor_id;sensor_type;location;lat;lon;timestamp;P1;durP1;ratioP1;P2;durP2;ratioP2
69912;SDS011;57198;52.082;5.108;2023-05-07T00:00:19;17.95;;;16.02;;
69912;SDS011;57198;52.082;5.108;2023-05-07T00:02:46;16.10;;;13.75;;
69912;SDS011;57198;52.082;5.108;2023-05-07T00:05:14;18.55;;;14.63;;
69912;SDS011;57198;52.082;5.108;2023-05-07T00:07:41;18.73;;;15.67;;
69912;SDS011;57198;52.082;5.108;2023-05-07T00:10:09;18.23;;;15.57;;
69912;SDS011;57198;52.082;5.108;2023-05-07T00:12:39;15.77;;;14.15;;
69912;SDS011;57198;52.082;5.108;2023-05-07T00:15:07;15.60;;;14.02;;
69912;SDS011;57198;52.082;5.108;2023-05-07T00:17:35;16.13;;;14.43;;
69912;SDS011;57198;52.082;5.108;2023-05-07T00:20:03;16.17;;;14.17;;
69912;SDS011;57198;52.082;5.108;2023-05-07T00:22:31;19.10;;;15.18;;
69912;SDS011;57198;52.082;5.108;2023-05-07T00:24:58;14.73;;;13.02;;
69912;SDS011;57198;52.082;5.108;2023-05-07T00:27:26;15.40;;;13.93;;
69912;SDS011;57198;52.082;5.108;2023-05-07T00:29:53;14.13;;;12.73;;
69912;SDS011;57198;52.082;5.108;2023-05-07T00:32:21;14.17;;;12.70;;
69912;SDS011;57198;52.082;5.108;2023-05-07T00:34:48;15.07;;;12.95;;
69912;SDS011;57198;52.082;5.108;2023-05-07T00:37:17;14.02;;;12.52;;
69912;SDS011;57198;52.082;5.108;2023-05-07T00:39:44;15.40;;;11.93;;
69912;SDS011;57198;52.082;5.108;2023-05-07T00:42:12;13.02;;;11.70;;
69912;SDS011;57198;52.082;5.108;2023-05-07T00:44:39;12.17;;;11.07;;
69912;SDS011;57198;52.082;5.108;2023-05-07T00:47:06;12.05;;;10.80;;
69912;SDS011;57198;52.082;5.108;2023-05-07T00:49:43;11.70;;;10.02;;
69912;SDS011;57198;52.082;5.108;2023-05-07T00:52:11;11.90;;;10.00;;
69912;SDS011;57198;52.082;5.108;2023-05-07T00:54:38;12.63;;;10.48;;
69912;SDS011;57198;52.082;5.108;2023-05-07T00:57:07;16.17;;;10.80;;
69912;SDS011;57198;52.082;5.108;2023-05-07T00:59:36;11.65;;;10.13;;
69912;SDS011;57198;52.082;5.108;2023-05-07T01:02:04;11.27;;;10.27;;
69912;SDS011;57198;52.082;5.108;2023-05-07T01:04:31;11.00;;;9.95;;
69912;SDS011;57198;52.082;5.108;2023-05-07T01:06:59;8.85;;;8.00;;
69912;SDS011;57198;52.082;5.108;2023-05-07T01:09:27;10.07;;;9.07;;
69912;SDS011;57198;52.082;5.108;2023-05-07T01:11:55;12.93;;;9.25;;
69912;SDS011;57198;52.082;5.108;2023-05-07T01:14:23;10.27;;;9.15;;
69912;SDS011;57198;52.082;5.108;2023-05-07T01:16:52;11.70;;;8.93;;
69912;SDS011;57198;52.082;5.108;2023-05-07T01:19:22;11.90;;;10.32;;
69912;SDS011;57198;52.082;5.108;2023-05-07T01:21:50;12.10;;;10.03;;
69912;SDS011;57198;52.082;5.108;2023-05-07T01:24:20;9.98;;;9.07;;
69912;SDS011;57198;52.082;5.108;2023-05-07T01:26:47;11.15;;;9.32;;
69912;SDS011;57198;52.082;5.108;2023-05-07T01:29:16;11.15;;;8.90;;
69912;SDS011;57198;52.082;5.108;2023-05-07T01:31:45;11.48;;;10.38;;
69912;SDS011;57198;52.082;5.108;2023-05-07T01:34:13;10.60;;;9.60;;
69912;SDS011;57198;52.082;5.108;2023-05-07T01:36:41;10.30;;;9.18;;
69912;SDS011;57198;52.082;5.108;2023-05-07T01:39:09;9.68;;;8.68;;
69912;SDS011;57198;52.082;5.108;2023-05-07T01:41:37;10.60;;;8.77;;
69912;SDS011;57198;52.082;5.108;2023-05-07T01:44:05;9.85;;;8.85;;
69912;SDS011;57198;52.082;5.108;2023-05-07T01:46:32;8.70;;;7.83;;
69912;SDS011;57198;52.082;5.108;2023-05-07T01:49:00;10.43;;;9.20;;
69912;SDS011;57198;52.082;5.108;2023-05-07T01:51:27;9.70;;;8.70;;
69912;SDS011;57198;52.082;5.108;2023-05-07T01:53:55;11.20;;;9.02;;
69912;SDS011;57198;52.082;5.108;2023-05-07T01:56:23;9.98;;;8.45;;
69912;SDS011;57198;52.082;5.108;2023-05-07T01:58:51;12.30;;;7.70;;
69912;SDS011;57198;52.082;5.108;2023-05-07T02:01:19;8.63;;;7.82;;
69912;SDS011;57198;52.082;5.108;2023-05-07T02:03:47;9.32;;;8.32;;
69912;SDS011;57198;52.082;5.108;2023-05-07T02:06:21;9.60;;;7.90;;
69912;SDS011;57198;52.082;5.108;2023-05-07T02:08:51;11.38;;;8.32;;
69912;SDS011;57198;52.082;5.108;2023-05-07T02:11:18;9.70;;;8.67;;
69912;SDS011;57198;52.082;5.108;2023-05-07T02:13:46;9.77;;;8.70;;
69912;SDS011;57198;52.082;5.108;2023-05-07T02:16:13;8.98;;;7.95;;
69912;SDS011;57198;52.082;5.108;2023-05-07T02:18:41;10.68;;;8.77;;
69912;SDS011;57198;52.082;5.108;2023-05-07T02:21:08;9.02;;;8.02;;
69912;SDS011;57198;52.082;5.108;2023-05-07T02:23:35;9.30;;;8.40;;
69912;SDS011;57198;52.082;5.108;2023-05-07T02:26:03;10.23;;;8.80;;
69912;SDS011;57198;52.082;5.108;2023-05-07T02:28:31;9.25;;;8.40;;
69912;SDS011;57198;52.082;5.108;2023-05-07T02:31:03;10.65;;;8.50;;
69912;SDS011;57198;52.082;5.108;2023-05-07T02:33:31;9.38;;;8.30;;
69912;SDS011;57198;52.082;5.108;2023-05-07T02:36:06;9.43;;;8.53;;
69912;SDS011;57198;52.082;5.108;2023-05-07T02:38:35;10.07;;;8.85;;
69912;SDS011;57198;52.082;5.108;2023-05-07T02:41:03;10.02;;;9.05;;
69912;SDS011;57198;52.082;5.108;2023-05-07T02:43:30;9.30;;;8.40;;
69912;SDS011;57198;52.082;5.108;2023-05-07T02:46:04;9.05;;;8.15;;
69912;SDS011;57198;52.082;5.108;2023-05-07T02:48:35;8.80;;;7.90;;
69912;SDS011;57198;52.082;5.108;2023-05-07T02:51:02;10.27;;;9.25;;
69912;SDS011;57198;52.082;5.108;2023-05-07T02:53:33;9.68;;;8.75;;
69912;SDS011;57198;52.082;5.108;2023-05-07T02:56:00;10.48;;;9.00;;
69912;SDS011;57198;52.082;5.108;2023-05-07T02:58:28;10.10;;;8.57;;
69912;SDS011;57198;52.082;5.108;2023-05-07T03:00:57;10.53;;;8.70;;
69912;SDS011;57198;52.082;5.108;2023-05-07T03:03:36;10.85;;;9.00;;
69912;SDS011;57198;52.082;5.108;2023-05-07T03:06:04;9.80;;;8.57;;
69912;SDS011;57198;52.082;5.108;2023-05-07T03:08:31;9.50;;;8.68;;
69912;SDS011;57198;52.082;5.108;2023-05-07T03:10:58;9.02;;;8.00;;
69912;SDS011;57198;52.082;5.108;2023-05-07T03:13:26;9.77;;;8.80;;
69912;SDS011;57198;52.082;5.108;2023-05-07T03:15:53;10.27;;;8.35;;
69912;SDS011;57198;52.082;5.108;2023-05-07T03:18:21;9.70;;;7.95;;
69912;SDS011;57198;52.082;5.108;2023-05-07T03:20:48;9.48;;;8.40;;
69912;SDS011;57198;52.082;5.108;2023-05-07T03:23:17;9.40;;;7.57;;
69912;SDS011;57198;52.082;5.108;2023-05-07T03:25:44;9.00;;;8.20;;
69912;SDS011;57198;52.082;5.108;2023-05-07T03:28:11;9.68;;;8.73;;
69912;SDS011;57198;52.082;5.108;2023-05-07T03:30:45;9.93;;;8.30;;
69912;SDS011;57198;52.082;5.108;2023-05-07T03:33:13;11.27;;;8.73;;
69912;SDS011;57198;52.082;5.108;2023-05-07T03:35:40;9.63;;;8.43;;
69912;SDS011;57198;52.082;5.108;2023-05-07T03:38:08;9.27;;;8.37;;
69912;SDS011;57198;52.082;5.108;2023-05-07T03:40:37;9.32;;;8.52;;
69912;SDS011;57198;52.082;5.108;2023-05-07T03:43:04;9.65;;;8.77;;
69912;SDS011;57198;52.082;5.108;2023-05-07T03:45:34;12.73;;;8.82;;
69912;SDS011;57198;52.082;5.108;2023-05-07T03:48:13;10.60;;;9.52;;
69912;SDS011;57198;52.082;5.108;2023-05-07T03:50:41;13.17;;;9.90;;
69912;SDS011;57198;52.082;5.108;2023-05-07T03:53:08;10.00;;;8.88;;
69912;SDS011;57198;52.082;5.108;2023-05-07T03:55:38;10.27;;;8.85;;
69912;SDS011;57198;52.082;5.108;2023-05-07T03:58:05;9.68;;;8.68;;
69912;SDS011;57198;52.082;5.108;2023-05-07T04:00:33;9.55;;;8.65;;
69912;SDS011;57198;52.082;5.108;2023-05-07T04:03:13;11.17;;;9.03;;
69912;SDS011;57198;52.082;5.108;2023-05-07T04:05:41;9.10;;;8.15;;
69912;SDS011;57198;52.082;5.108;2023-05-07T04:08:08;12.00;;;9.63;;
69912;SDS011;57198;52.082;5.108;2023-05-07T04:10:42;11.13;;;9.90;;
69912;SDS011;57198;52.082;5.108;2023-05-07T04:13:10;10.32;;;9.23;;
69912;SDS011;57198;52.082;5.108;2023-05-07T04:15:37;12.00;;;10.10;;
69912;SDS011;57198;52.082;5.108;2023-05-07T04:18:08;12.35;;;10.00;;
69912;SDS011;57198;52.082;5.108;2023-05-07T04:20:37;11.38;;;10.25;;
69912;SDS011;57198;52.082;5.108;2023-05-07T04:23:09;11.38;;;10.23;;
69912;SDS011;57198;52.082;5.108;2023-05-07T04:25:37;10.27;;;9.27;;
69912;SDS011;57198;52.082;5.108;2023-05-07T04:28:15;15.60;;;11.57;;
69912;SDS011;57198;52.082;5.108;2023-05-07T04:30:43;12.00;;;10.73;;
69912;SDS011;57198;52.082;5.108;2023-05-07T04:33:11;11.48;;;10.25;;
69912;SDS011;57198;52.082;5.108;2023-05-07T04:35:40;13.23;;;10.50;;
69912;SDS011;57198;52.082;5.108;2023-05-07T04:38:08;12.07;;;10.77;;
69912;SDS011;57198;52.082;5.108;2023-05-07T04:40:36;13.47;;;11.73;;
69912;SDS011;57198;52.082;5.108;2023-05-07T04:43:03;13.35;;;11.93;;
69912;SDS011;57198;52.082;5.108;2023-05-07T04:45:37;12.00;;;10.80;;
69912;SDS011;57198;52.082;5.108;2023-05-07T04:48:08;11.73;;;10.52;;
69912;SDS011;57198;52.082;5.108;2023-05-07T04:50:38;10.90;;;9.88;;
69912;SDS011;57198;52.082;5.108;2023-05-07T04:53:06;12.57;;;11.27;;
69912;SDS011;57198;52.082;5.108;2023-05-07T04:55:34;12.75;;;11.55;;
69912;SDS011;57198;52.082;5.108;2023-05-07T04:58:02;13.93;;;12.23;;
69912;SDS011;57198;52.082;5.108;2023-05-07T05:00:33;13.00;;;11.65;;
69912;SDS011;57198;52.082;5.108;2023-05-07T05:03:02;13.35;;;11.95;;
69912;SDS011;57198;52.082;5.108;2023-05-07T05:05:30;12.97;;;11.07;;
69912;SDS011;57198;52.082;5.108;2023-05-07T05:07:58;12.32;;;10.27;;
69912;SDS011;57198;52.082;5.108;2023-05-07T05:10:26;10.90;;;9.77;;
69912;SDS011;57198;52.082;5.108;2023-05-07T05:12:54;14.25;;;11.70;;
69912;SDS011;57198;52.082;5.108;2023-05-07T05:15:22;13.63;;;11.32;;
69912;SDS011;57198;52.082;5.108;2023-05-07T05:17:50;13.47;;;11.30;;
69912;SDS011;57198;52.082;5.108;2023-05-07T05:20:18;14.88;;;12.50;;
69912;SDS011;57198;52.082;5.108;2023-05-07T05:22:47;14.43;;;12.30;;
69912;SDS011;57198;52.082;5.108;2023-05-07T05:25:14;12.50;;;11.18;;
69912;SDS011;57198;52.082;5.108;2023-05-07T05:27:41;14.82;;;12.88;;
69912;SDS011;57198;52.082;5.108;2023-05-07T05:30:09;12.83;;;11.53;;
69912;SDS011;57198;52.082;5.108;2023-05-07T05:32:37;12.88;;;11.57;;
69912;SDS011;57198;52.082;5.108;2023-05-07T05:35:05;11.32;;;10.02;;
69912;SDS011;57198;52.082;5.108;2023-05-07T05:37:33;13.05;;;11.68;;
69912;SDS011;57198;52.082;5.108;2023-05-07T05:40:02;14.50;;;11.77;;
69912;SDS011;57198;52.082;5.108;2023-05-07T05:42:30;12.97;;;11.77;;
69912;SDS011;57198;52.082;5.108;2023-05-07T05:44:57;13.48;;;12.18;;
69912;SDS011;57198;52.082;5.108;2023-05-07T05:47:26;14.10;;;11.45;;
69912;SDS011;57198;52.082;5.108;2023-05-07T05:49:54;14.07;;;12.57;;
69912;SDS011;57198;52.082;5.108;2023-05-07T05:52:22;14.48;;;12.38;;
69912;SDS011;57198;52.082;5.108;2023-05-07T05:54:53;12.23;;;10.93;;
69912;SDS011;57198;52.082;5.108;2023-05-07T05:57:21;14.27;;;10.93;;
69912;SDS011;57198;52.082;5.108;2023-05-07T05:59:49;12.55;;;11.35;;
69912;SDS011;57198;52.082;5.108;2023-05-07T06:02:17;12.52;;;11.25;;
69912;SDS011;57198;52.082;5.108;2023-05-07T06:04:44;13.45;;;12.05;;
69912;SDS011;57198;52.082;5.108;2023-05-07T06:07:16;12.10;;;10.90;;
69912;SDS011;57198;52.082;5.108;2023-05-07T06:09:43;12.48;;;11.23;;
69912;SDS011;57198;52.082;5.108;2023-05-07T06:12:11;14.20;;;12.52;;
69912;SDS011;57198;52.082;5.108;2023-05-07T06:14:39;13.25;;;11.95;;
69912;SDS011;57198;52.082;5.108;2023-05-07T06:17:07;13.73;;;12.32;;
69912;SDS011;57198;52.082;5.108;2023-05-07T06:19:34;14.77;;;13.23;;
69912;SDS011;57198;52.082;5.108;2023-05-07T06:22:03;14.98;;;13.05;;
69912;SDS011;57198;52.082;5.108;2023-05-07T06:24:32;13.75;;;12.45;;
69912;SDS011;57198;52.082;5.108;2023-05-07T06:27:00;13.02;;;11.82;;
69912;SDS011;57198;52.082;5.108;2023-05-07T06:29:28;14.10;;;12.48;;
69912;SDS011;57198;52.082;5.108;2023-05-07T06:32:10;12.97;;;11.53;;
69912;SDS011;57198;52.082;5.108;2023-05-07T06:34:40;13.18;;;11.88;;
69912;SDS011;57198;52.082;5.108;2023-05-07T06:37:08;12.77;;;10.80;;
69912;SDS011;57198;52.082;5.108;2023-05-07T06:40:05;11.05;;;9.95;;
69912;SDS011;57198;52.082;5.108;2023-05-07T06:42:36;12.10;;;10.35;;
69912;SDS011;57198;52.082;5.108;2023-05-07T06:45:29;12.90;;;11.60;;
69912;SDS011;57198;52.082;5.108;2023-05-07T06:47:57;15.05;;;10.45;;
69912;SDS011;57198;52.082;5.108;2023-05-07T06:50:26;13.10;;;11.70;;
69912;SDS011;57198;52.082;5.108;2023-05-07T06:52:56;14.48;;;10.40;;
69912;SDS011;57198;52.082;5.108;2023-05-07T06:55:24;13.88;;;11.30;;
69912;SDS011;57198;52.082;5.108;2023-05-07T06:57:53;15.77;;;10.97;;
69912;SDS011;57198;52.082;5.108;2023-05-07T07:00:22;12.40;;;11.10;;
69912;SDS011;57198;52.082;5.108;2023-05-07T07:02:53;11.90;;;10.70;;
69912;SDS011;57198;52.082;5.108;2023-05-07T07:05:23;12.48;;;11.18;;
69912;SDS011;57198;52.082;5.108;2023-05-07T07:07:51;13.52;;;12.13;;
69912;SDS011;57198;52.082;5.108;2023-05-07T07:10:20;12.57;;;11.27;;
69912;SDS011;57198;52.082;5.108;2023-05-07T07:12:49;13.82;;;11.43;;
69912;SDS011;57198;52.082;5.108;2023-05-07T07:15:19;13.98;;;11.68;;
69912;SDS011;57198;52.082;5.108;2023-05-07T07:17:48;11.50;;;10.30;;
69912;SDS011;57198;52.082;5.108;2023-05-07T07:20:16;12.38;;;11.07;;
69912;SDS011;57198;52.082;5.108;2023-05-07T07:22:44;14.60;;;11.63;;
69912;SDS011;57198;52.082;5.108;2023-05-07T07:25:12;13.00;;;10.63;;
69912;SDS011;57198;52.082;5.108;2023-05-07T07:27:39;12.82;;;11.15;;
69912;SDS011;57198;52.082;5.108;2023-05-07T07:30:07;12.52;;;10.32;;
69912;SDS011;57198;52.082;5.108;2023-05-07T07:32:38;12.63;;;11.35;;
69912;SDS011;57198;52.082;5.108;2023-05-07T07:35:06;13.83;;;12.17;;
69912;SDS011;57198;52.082;5.108;2023-05-07T07:37:34;14.65;;;12.23;;
69912;SDS011;57198;52.082;5.108;2023-05-07T07:40:02;17.67;;;11.85;;
69912;SDS011;57198;52.082;5.108;2023-05-07T07:42:31;13.20;;;11.60;;
69912;SDS011;57198;52.082;5.108;2023-05-07T07:44:58;14.43;;;11.27;;
69912;SDS011;57198;52.082;5.108;2023-05-07T07:47:30;14.20;;;11.37;;
69912;SDS011;57198;52.082;5.108;2023-05-07T07:49:57;18.08;;;12.63;;
69912;SDS011;57198;52.082;5.108;2023-05-07T07:52:24;13.13;;;11.65;;
69912;SDS011;57198;52.082;5.108;2023-05-07T07:54:52;15.10;;;12.25;;
69912;SDS011;57198;52.082;5.108;2023-05-07T07:57:20;16.98;;;12.15;;
69912;SDS011;57198;52.082;5.108;2023-05-07T07:59:49;15.07;;;12.97;;
69912;SDS011;57198;52.082;5.108;2023-05-07T08:02:17;14.15;;;12.57;;
69912;SDS011;57198;52.082;5.108;2023-05-07T08:04:45;18.00;;;11.73;;
69912;SDS011;57198;52.082;5.108;2023-05-07T08:07:13;14.98;;;12.07;;
69912;SDS011;57198;52.082;5.108;2023-05-07T08:09:44;15.05;;;12.52;;
69912;SDS011;57198;52.082;5.108;2023-05-07T08:12:11;18.23;;;13.93;;
69912;SDS011;57198;52.082;5.108;2023-05-07T08:14:39;13.27;;;11.73;;
69912;SDS011;57198;52.082;5.108;2023-05-07T08:17:07;13.05;;;11.75;;
69912;SDS011;57198;52.082;5.108;2023-05-07T08:19:37;17.45;;;12.23;;
69912;SDS011;57198;52.082;5.108;2023-05-07T08:22:07;12.82;;;11.32;;
69912;SDS011;57198;52.082;5.108;2023-05-07T08:24:34;13.83;;;11.77;;
69912;SDS011;57198;52.082;5.108;2023-05-07T08:27:02;12.93;;;11.63;;
69912;SDS011;57198;52.082;5.108;2023-05-07T08:29:29;12.35;;;11.15;;
69912;SDS011;57198;52.082;5.108;2023-05-07T08:31:58;12.77;;;11.18;;
69912;SDS011;57198;52.082;5.108;2023-05-07T08:34:26;12.15;;;10.60;;
69912;SDS011;57198;52.082;5.108;2023-05-07T08:36:55;11.70;;;10.47;;
69912;SDS011;57198;52.082;5.108;2023-05-07T08:39:23;13.23;;;10.00;;
69912;SDS011;57198;52.082;5.108;2023-05-07T08:41:54;12.55;;;9.70;;
69912;SDS011;57198;52.082;5.108;2023-05-07T08:44:26;13.30;;;10.27;;
69912;SDS011;57198;52.082;5.108;2023-05-07T08:46:56;12.98;;;9.65;;
69912;SDS011;57198;52.082;5.108;2023-05-07T08:49:24;11.20;;;9.63;;
69912;SDS011;57198;52.082;5.108;2023-05-07T08:51:52;10.55;;;9.48;;
69912;SDS011;57198;52.082;5.108;2023-05-07T08:54:20;10.82;;;9.73;;
69912;SDS011;57198;52.082;5.108;2023-05-07T08:56:48;11.50;;;10.05;;
69912;SDS011;57198;52.082;5.108;2023-05-07T08:59:15;10.45;;;9.45;;
69912;SDS011;57198;52.082;5.108;2023-05-07T09:01:43;9.57;;;8.67;;
69912;SDS011;57198;52.082;5.108;2023-05-07T09:04:13;10.13;;;9.10;;
69912;SDS011;57198;52.082;5.108;2023-05-07T09:06:42;9.50;;;7.50;;
69912;SDS011;57198;52.082;5.108;2023-05-07T09:09:14;8.32;;;7.32;;
69912;SDS011;57198;52.082;5.108;2023-05-07T09:11:41;8.18;;;7.47;;
69912;SDS011;57198;52.082;5.108;2023-05-07T09:14:10;8.20;;;6.80;;
69912;SDS011;57198;52.082;5.108;2023-05-07T09:16:41;7.75;;;6.50;;
69912;SDS011;57198;52.082;5.108;2023-05-07T09:19:08;8.00;;;6.97;;
69912;SDS011;57198;52.082;5.108;2023-05-07T09:21:41;7.22;;;6.50;;
69912;SDS011;57198;52.082;5.108;2023-05-07T09:24:09;8.07;;;7.28;;
69912;SDS011;57198;52.082;5.108;2023-05-07T09:26:40;9.30;;;7.30;;
69912;SDS011;57198;52.082;5.108;2023-05-07T09:29:10;9.25;;;7.45;;
69912;SDS011;57198;52.082;5.108;2023-05-07T09:31:38;10.07;;;7.68;;
69912;SDS011;57198;52.082;5.108;2023-05-07T09:34:10;11.13;;;7.65;;
69912;SDS011;57198;52.082;5.108;2023-05-07T09:36:40;8.25;;;7.30;;
69912;SDS011;57198;52.082;5.108;2023-05-07T09:39:07;7.93;;;7.13;;
69912;SDS011;57198;52.082;5.108;2023-05-07T09:41:42;8.60;;;7.55;;
69912;SDS011;57198;52.082;5.108;2023-05-07T09:44:16;8.43;;;7.40;;
69912;SDS011;57198;52.082;5.108;2023-05-07T09:46:52;10.23;;;8.43;;
69912;SDS011;57198;52.082;5.108;2023-05-07T09:49:28;8.38;;;7.25;;
69912;SDS011;57198;52.082;5.108;2023-05-07T09:52:02;7.33;;;6.37;;
69912;SDS011;57198;52.082;5.108;2023-05-07T09:54:35;11.93;;;7.65;;
69912;SDS011;57198;52.082;5.108;2023-05-07T09:57:05;7.47;;;5.50;;
69912;SDS011;57198;52.082;5.108;2023-05-07T09:59:33;9.50;;;7.18;;
69912;SDS011;57198;52.082;5.108;2023-05-07T10:02:04;8.60;;;6.20;;
69912;SDS011;57198;52.082;5.108;2023-05-07T10:04:38;9.23;;;6.57;;
69912;SDS011;57198;52.082;5.108;2023-05-07T10:07:07;6.55;;;5.85;;
69912;SDS011;57198;52.082;5.108;2023-05-07T10:09:36;5.93;;;5.05;;
69912;SDS011;57198;52.082;5.108;2023-05-07T10:12:10;6.60;;;5.68;;
69912;SDS011;57198;52.082;5.108;2023-05-07T10:14:38;6.85;;;5.40;;
69912;SDS011;57198;52.082;5.108;2023-05-07T10:17:06;6.63;;;5.63;;
69912;SDS011;57198;52.082;5.108;2023-05-07T10:19:34;5.55;;;4.90;;
69912;SDS011;57198;52.082;5.108;2023-05-07T10:22:05;5.38;;;4.88;;
69912;SDS011;57198;52.082;5.108;2023-05-07T10:24:38;6.07;;;4.68;;
69912;SDS011;57198;52.082;5.108;2023-05-07T10:27:12;5.47;;;4.93;;
69912;SDS011;57198;52.082;5.108;2023-05-07T10:29:50;4.50;;;3.47;;
69912;SDS011;57198;52.082;5.108;2023-05-07T10:35:05;4.68;;;3.50;;
69912;SDS011;57198;52.082;5.108;2023-05-07T10:37:33;4.05;;;3.33;;
69912;SDS011;57198;52.082;5.108;2023-05-07T10:40:01;4.50;;;3.78;;
69912;SDS011;57198;52.082;5.108;2023-05-07T10:42:30;5.43;;;3.13;;
69912;SDS011;57198;52.082;5.108;2023-05-07T10:44:58;4.55;;;3.53;;
69912;SDS011;57198;52.082;5.108;2023-05-07T10:50:26;4.53;;;2.85;;
69912;SDS011;57198;52.082;5.108;2023-05-07T10:53:42;6.63;;;2.75;;
69912;SDS011;57198;52.082;5.108;2023-05-07T10:58:55;4.28;;;3.08;;
69912;SDS011;57198;52.082;5.108;2023-05-07T11:04:15;4.38;;;3.17;;
69912;SDS011;57198;52.082;5.108;2023-05-07T11:07:41;4.32;;;3.17;;
69912;SDS011;57198;52.082;5.108;2023-05-07T11:10:01;4.67;;;3.50;;
69912;SDS011;57198;52.082;5.108;2023-05-07T11:12:51;4.90;;;3.20;;
69912;SDS011;57198;52.082;5.108;2023-05-07T11:15:33;3.97;;;3.13;;
69912;SDS011;57198;52.082;5.108;2023-05-07T11:18:04;3.38;;;2.85;;
69912;SDS011;57198;52.082;5.108;2023-05-07T11:20:46;5.95;;;3.50;;
69912;SDS011;57198;52.082;5.108;2023-05-07T11:26:09;3.55;;;2.97;;
69912;SDS011;57198;52.082;5.108;2023-05-07T11:28:39;4.60;;;3.00;;
69912;SDS011;57198;52.082;5.108;2023-05-07T11:31:06;4.45;;;3.85;;
69912;SDS011;57198;52.082;5.108;2023-05-07T11:33:35;3.70;;;3.30;;
69912;SDS011;57198;52.082;5.108;2023-05-07T11:36:04;4.70;;;4.10;;
69912;SDS011;57198;52.082;5.108;2023-05-07T11:38:37;5.72;;;4.30;;
69912;SDS011;57198;52.082;5.108;2023-05-07T11:41:05;3.30;;;3.00;;
69912;SDS011;57198;52.082;5.108;2023-05-07T11:43:32;5.47;;;3.55;;
69912;SDS011;57198;52.082;5.108;2023-05-07T11:46:09;5.75;;;3.58;;
69912;SDS011;57198;52.082;5.108;2023-05-07T11:48:37;11.07;;;5.20;;
69912;SDS011;57198;52.082;5.108;2023-05-07T11:51:05;6.75;;;4.10;;
69912;SDS011;57198;52.082;5.108;2023-05-07T11:53:36;4.35;;;3.83;;
69912;SDS011;57198;52.082;5.108;2023-05-07T11:56:07;5.95;;;4.50;;
69912;SDS011;57198;52.082;5.108;2023-05-07T11:58:35;7.75;;;3.75;;
69912;SDS011;57198;52.082;5.108;2023-05-07T12:01:03;4.43;;;3.70;;
69912;SDS011;57198;52.082;5.108;2023-05-07T12:03:30;5.28;;;3.80;;
69912;SDS011;57198;52.082;5.108;2023-05-07T12:06:01;6.55;;;3.75;;
69912;SDS011;57198;52.082;5.108;2023-05-07T12:08:29;6.65;;;3.97;;
69912;SDS011;57198;52.082;5.108;2023-05-07T12:10:56;6.97;;;5.25;;
69912;SDS011;57198;52.082;5.108;2023-05-07T12:13:24;5.50;;;3.80;;
69912;SDS011;57198;52.082;5.108;2023-05-07T12:15:53;4.45;;;3.70;;
69912;SDS011;57198;52.082;5.108;2023-05-07T12:18:20;5.30;;;3.22;;
69912;SDS011;57198;52.082;5.108;2023-05-07T12:20:48;4.80;;;3.80;;
69912;SDS011;57198;52.082;5.108;2023-05-07T12:23:15;8.18;;;4.10;;
69912;SDS011;57198;52.082;5.108;2023-05-07T12:25:43;5.67;;;3.67;;
69912;SDS011;57198;52.082;5.108;2023-05-07T12:28:17;4.97;;;4.47;;
69912;SDS011;57198;52.082;5.108;2023-05-07T12:30:45;3.75;;;3.22;;
69912;SDS011;57198;52.082;5.108;2023-05-07T12:33:16;4.82;;;3.13;;
69912;SDS011;57198;52.082;5.108;2023-05-07T12:35:44;5.15;;;4.13;;
69912;SDS011;57198;52.082;5.108;2023-05-07T12:38:15;4.80;;;2.80;;
69912;SDS011;57198;52.082;5.108;2023-05-07T12:40:44;4.80;;;3.13;;
69912;SDS011;57198;52.082;5.108;2023-05-07T12:43:21;3.47;;;2.30;;
69912;SDS011;57198;52.082;5.108;2023-05-07T12:45:51;5.30;;;3.50;;
69912;SDS011;57198;52.082;5.108;2023-05-07T12:48:20;6.53;;;3.80;;
69912;SDS011;57198;52.082;5.108;2023-05-07T12:50:51;4.20;;;2.83;;
69912;SDS011;57198;52.082;5.108;2023-05-07T12:53:20;5.57;;;4.00;;
69912;SDS011;57198;52.082;5.108;2023-05-07T12:55:48;4.32;;;3.58;;
69912;SDS011;57198;52.082;5.108;2023-05-07T13:00:43;5.45;;;4.30;;
69912;SDS011;57198;52.082;5.108;2023-05-07T13:03:11;4.53;;;3.77;;
69912;SDS011;57198;52.082;5.108;2023-05-07T13:05:39;8.90;;;5.43;;
69912;SDS011;57198;52.082;5.108;2023-05-07T13:08:06;6.85;;;5.70;;
69912;SDS011;57198;52.082;5.108;2023-05-07T13:10:35;6.65;;;4.97;;
69912;SDS011;57198;52.082;5.108;2023-05-07T13:13:03;6.63;;;5.13;;
69912;SDS011;57198;52.082;5.108;2023-05-07T13:15:31;5.50;;;4.50;;
69912;SDS011;57198;52.082;5.108;2023-05-07T13:17:58;5.78;;;5.10;;
69912;SDS011;57198;52.082;5.108;2023-05-07T13:20:26;8.20;;;5.30;;
69912;SDS011;57198;52.082;5.108;2023-05-07T13:22:53;5.60;;;4.40;;
69912;SDS011;57198;52.082;5.108;2023-05-07T13:25:20;6.22;;;4.57;;
69912;SDS011;57198;52.082;5.108;2023-05-07T13:27:47;7.53;;;4.83;;
69912;SDS011;57198;52.082;5.108;2023-05-07T13:30:32;6.30;;;4.60;;
69912;SDS011;57198;52.082;5.108;2023-05-07T13:32:59;7.40;;;5.05;;
69912;SDS011;57198;52.082;5.108;2023-05-07T13:35:27;6.55;;;3.70;;
69912;SDS011;57198;52.082;5.108;2023-05-07T13:37:54;6.45;;;2.63;;
69912;SDS011;57198;52.082;5.108;2023-05-07T13:40:22;6.07;;;2.70;;
69912;SDS011;57198;52.082;5.108;2023-05-07T13:42:50;4.03;;;2.47;;
69912;SDS011;57198;52.082;5.108;2023-05-07T13:45:18;4.97;;;3.63;;
69912;SDS011;57198;52.082;5.108;2023-05-07T13:47:45;6.10;;;3.30;;
69912;SDS011;57198;52.082;5.108;2023-05-07T13:50:13;7.97;;;3.65;;
69912;SDS011;57198;52.082;5.108;2023-05-07T13:52:41;6.20;;;3.13;;
69912;SDS011;57198;52.082;5.108;2023-05-07T13:55:12;6.45;;;2.88;;
69912;SDS011;57198;52.082;5.108;2023-05-07T13:57:40;4.07;;;2.72;;
69912;SDS011;57198;52.082;5.108;2023-05-07T14:00:07;3.80;;;2.95;;
69912;SDS011;57198;52.082;5.108;2023-05-07T14:02:41;6.45;;;2.95;;
69912;SDS011;57198;52.082;5.108;2023-05-07T14:05:09;5.30;;;2.93;;
69912;SDS011;57198;52.082;5.108;2023-05-07T14:07:36;4.65;;;2.65;;
69912;SDS011;57198;52.082;5.108;2023-05-07T14:10:04;5.60;;;2.60;;
69912;SDS011;57198;52.082;5.108;2023-05-07T14:12:32;4.78;;;2.80;;
69912;SDS011;57198;52.082;5.108;2023-05-07T14:14:59;5.88;;;2.33;;
69912;SDS011;57198;52.082;5.108;2023-05-07T14:17:27;3.73;;;2.03;;
69912;SDS011;57198;52.082;5.108;2023-05-07T14:19:54;4.35;;;2.08;;
69912;SDS011;57198;52.082;5.108;2023-05-07T14:22:22;3.17;;;1.90;;
69912;SDS011;57198;52.082;5.108;2023-05-07T14:24:49;4.30;;;2.47;;
69912;SDS011;57198;52.082;5.108;2023-05-07T14:27:32;5.60;;;3.67;;
69912;SDS011;57198;52.082;5.108;2023-05-07T14:29:59;9.07;;;4.10;;
69912;SDS011;57198;52.082;5.108;2023-05-07T14:32:26;5.40;;;3.53;;
69912;SDS011;57198;52.082;5.108;2023-05-07T14:34:54;7.20;;;5.28;;
69912;SDS011;57198;52.082;5.108;2023-05-07T14:37:21;6.88;;;5.43;;
69912;SDS011;57198;52.082;5.108;2023-05-07T14:39:48;8.32;;;6.07;;
69912;SDS011;57198;52.082;5.108;2023-05-07T14:42:16;6.40;;;5.70;;
69912;SDS011;57198;52.082;5.108;2023-05-07T14:44:45;7.65;;;5.95;;
69912;SDS011;57198;52.082;5.108;2023-05-07T14:47:16;7.65;;;6.00;;
69912;SDS011;57198;52.082;5.108;2023-05-07T14:49:45;6.63;;;5.32;;
69912;SDS011;57198;52.082;5.108;2023-05-07T14:52:12;7.05;;;5.28;;
69912;SDS011;57198;52.082;5.108;2023-05-07T14:54:40;6.67;;;5.27;;
69912;SDS011;57198;52.082;5.108;2023-05-07T14:57:08;5.35;;;4.65;;
69912;SDS011;57198;52.082;5.108;2023-05-07T14:59:37;8.38;;;5.00;;
69912;SDS011;57198;52.082;5.108;2023-05-07T15:02:05;9.43;;;6.03;;
69912;SDS011;57198;52.082;5.108;2023-05-07T15:04:35;13.85;;;6.35;;